sensor_id;sensor_type;location;lat;lon;timestamp;P1;durP1;ratioP1;P2;durP2;ratioP2
76689;SDS011;70102;44.506;0.220;2023-06-10T00:00:57;5.80;;;2.60;;
76689;SDS011;70102;44.506;0.220;2023-06-10T00:06:29;10.77;;;2.63;;
76689;SDS011;70102;44.506;0.220;2023-06-10T00:12:02;7.27;;;3.30;;
76689;SDS011;70102;44.506;0.220;2023-06-10T00:17:34;17.17;;;2.23;;
76689;SDS011;70102;44.506;0.220;2023-06-10T00:23:07;7.07;;;2.40;;
76689;SDS011;70102;44.506;0.220;2023-06-10T00:28:40;4.40;;;2.37;;
76689;SDS011;70102;44.506;0.220;2023-06-10T00:34:13;10.23;;;2.70;;
76689;SDS011;70102;44.506;0.220;2023-06-10T00:39:45;4.23;;;2.87;;
76689;SDS011;70102;44.506;0.220;2023-06-10T00:45:17;2.77;;;2.10;;
76689;SDS011;70102;44.506;0.220;2023-06-10T00:50:50;8.07;;;2.60;;
76689;SDS011;70102;44.506;0.220;2023-06-10T00:56:24;4.53;;;2.40;;
76689;SDS011;70102;44.506;0.220;2023-06-10T01:01:56;3.87;;;2.43;;
76689;SDS011;70102;44.506;0.220;2023-06-10T01:13:03;4.73;;;2.33;;
76689;SDS011;70102;44.506;0.220;2023-06-10T01:18:35;7.27;;;4.03;;
76689;SDS011;70102;44.506;0.220;2023-06-10T01:24:10;4.43;;;2.87;;
76689;SDS011;70102;44.506;0.220;2023-06-10T01:29:41;4.60;;;2.43;;
76689;SDS011;70102;44.506;0.220;2023-06-10T01:35:11;8.23;;;2.93;;
76689;SDS011;70102;44.506;0.220;2023-06-10T01:40:43;12.30;;;3.63;;
76689;SDS011;70102;44.506;0.220;2023-06-10T01:46:17;8.97;;;3.53;;
76689;SDS011;70102;44.506;0.220;2023-06-10T01:51:49;9.03;;;3.43;;
76689;SDS011;70102;44.506;0.220;2023-06-10T01:57:23;10.50;;;3.70;;
76689;SDS011;70102;44.506;0.220;2023-06-10T02:02:56;9.90;;;4.47;;
76689;SDS011;70102;44.506;0.220;2023-06-10T02:08:30;7.90;;;3.50;;
76689;SDS011;70102;44.506;0.220;2023-06-10T02:14:02;11.53;;;3.37;;
76689;SDS011;70102;44.506;0.220;2023-06-10T02:25:07;6.73;;;3.77;;
76689;SDS011;70102;44.506;0.220;2023-06-10T02:30:41;10.03;;;3.50;;
76689;SDS011;70102;44.506;0.220;2023-06-10T02:36:14;14.77;;;4.23;;
76689;SDS011;70102;44.506;0.220;2023-06-10T02:41:47;12.10;;;3.90;;
76689;SDS011;70102;44.506;0.220;2023-06-10T02:47:18;10.67;;;4.70;;
76689;SDS011;70102;44.506;0.220;2023-06-10T02:52:51;9.77;;;3.40;;
76689;SDS011;70102;44.506;0.220;2023-06-10T02:58:24;6.20;;;3.87;;
76689;SDS011;70102;44.506;0.220;2023-06-10T03:03:57;10.70;;;3.70;;
76689;SDS011;70102;44.506;0.220;2023-06-10T03:09:30;10.53;;;3.20;;
76689;SDS011;70102;44.506;0.220;2023-06-10T03:15:03;6.47;;;3.10;;
76689;SDS011;70102;44.506;0.220;2023-06-10T03:20:35;6.27;;;3.77;;
76689;SDS011;70102;44.506;0.220;2023-06-10T03:26:08;7.20;;;3.57;;
76689;SDS011;70102;44.506;0.220;2023-06-10T03:31:41;9.20;;;3.63;;
76689;SDS011;70102;44.506;0.220;2023-06-10T03:37:14;10.93;;;4.50;;
76689;SDS011;70102;44.506;0.220;2023-06-10T03:42:47;13.27;;;4.20;;
76689;SDS011;70102;44.506;0.220;2023-06-10T03:48:19;11.50;;;4.80;;
76689;SDS011;70102;44.506;0.220;2023-06-10T03:53:52;20.60;;;5.27;;
76689;SDS011;70102;44.506;0.220;2023-06-10T03:59:25;31.03;;;6.00;;
76689;SDS011;70102;44.506;0.220;2023-06-10T04:04:58;20.40;;;5.47;;
76689;SDS011;70102;44.506;0.220;2023-06-10T04:10:31;18.97;;;6.53;;
76689;SDS011;70102;44.506;0.220;2023-06-10T04:16:05;32.87;;;6.83;;
76689;SDS011;70102;44.506;0.220;2023-06-10T04:21:37;23.47;;;7.13;;
76689;SDS011;70102;44.506;0.220;2023-06-10T04:27:10;29.50;;;6.80;;
76689;SDS011;70102;44.506;0.220;2023-06-10T04:32:43;22.20;;;6.03;;
76689;SDS011;70102;44.506;0.220;2023-06-10T04:38:16;14.17;;;5.70;;
76689;SDS011;70102;44.506;0.220;2023-06-10T04:43:49;13.53;;;5.53;;
76689;SDS011;70102;44.506;0.220;2023-06-10T04:49:23;14.13;;;5.53;;
76689;SDS011;70102;44.506;0.220;2023-06-10T04:54:55;19.60;;;6.47;;
76689;SDS011;70102;44.506;0.220;2023-06-10T05:00:27;21.63;;;6.80;;
76689;SDS011;70102;44.506;0.220;2023-06-10T05:05:59;24.87;;;6.47;;
76689;SDS011;70102;44.506;0.220;2023-06-10T05:11:32;16.80;;;5.97;;
76689;SDS011;70102;44.506;0.220;2023-06-10T05:17:05;16.60;;;5.67;;
76689;SDS011;70102;44.506;0.220;2023-06-10T05:22:38;20.47;;;6.10;;
76689;SDS011;70102;44.506;0.220;2023-06-10T05:28:09;10.43;;;6.87;;
76689;SDS011;70102;44.506;0.220;2023-06-10T05:33:43;13.40;;;5.67;;
76689;SDS011;70102;44.506;0.220;2023-06-10T05:39:16;19.33;;;7.60;;
76689;SDS011;70102;44.506;0.220;2023-06-10T05:44:48;20.63;;;7.47;;
76689;SDS011;70102;44.506;0.220;2023-06-10T05:50:20;19.50;;;6.83;;
76689;SDS011;70102;44.506;0.220;2023-06-10T05:55:52;12.17;;;6.37;;
76689;SDS011;70102;44.506;0.220;2023-06-10T06:01:25;18.50;;;6.67;;
76689;SDS011;70102;44.506;0.220;2023-06-10T06:06:59;11.47;;;6.70;;
76689;SDS011;70102;44.506;0.220;2023-06-10T06:12:31;11.77;;;6.53;;
76689;SDS011;70102;44.506;0.220;2023-06-10T06:18:05;11.80;;;6.60;;
76689;SDS011;70102;44.506;0.220;2023-06-10T06:23:37;11.03;;;6.17;;
76689;SDS011;70102;44.506;0.220;2023-06-10T06:29:11;11.13;;;5.90;;
76689;SDS011;70102;44.506;0.220;2023-06-10T06:34:43;9.23;;;5.77;;
76689;SDS011;70102;44.506;0.220;2023-06-10T06:40:17;11.60;;;5.43;;
76689;SDS011;70102;44.506;0.220;2023-06-10T06:45:50;10.00;;;6.70;;
76689;SDS011;70102;44.506;0.220;2023-06-10T06:51:22;8.33;;;6.07;;
76689;SDS011;70102;44.506;0.220;2023-06-10T06:56:55;14.10;;;6.20;;
76689;SDS011;70102;44.506;0.220;2023-06-10T07:02:28;6.47;;;5.67;;
76689;SDS011;70102;44.506;0.220;2023-06-10T07:08:02;10.03;;;5.57;;
76689;SDS011;70102;44.506;0.220;2023-06-10T07:13:36;10.03;;;6.10;;
76689;SDS011;70102;44.506;0.220;2023-06-10T07:19:08;11.33;;;6.77;;
76689;SDS011;70102;44.506;0.220;2023-06-10T07:24:40;7.53;;;5.30;;
76689;SDS011;70102;44.506;0.220;2023-06-10T07:30:14;8.00;;;5.87;;
76689;SDS011;70102;44.506;0.220;2023-06-10T07:35:47;5.57;;;4.33;;
76689;SDS011;70102;44.506;0.220;2023-06-10T07:41:22;5.67;;;4.20;;
76689;SDS011;70102;44.506;0.220;2023-06-10T07:46:53;7.90;;;4.73;;
76689;SDS011;70102;44.506;0.220;2023-06-10T07:52:25;10.03;;;3.57;;
76689;SDS011;70102;44.506;0.220;2023-06-10T07:57:59;3.30;;;3.00;;
76689;SDS011;70102;44.506;0.220;2023-06-10T08:03:31;7.00;;;4.07;;
76689;SDS011;70102;44.506;0.220;2023-06-10T08:09:04;4.67;;;3.43;;
76689;SDS011;70102;44.506;0.220;2023-06-10T08:14:38;4.00;;;2.90;;
76689;SDS011;70102;44.506;0.220;2023-06-10T08:20:10;6.67;;;3.17;;
76689;SDS011;70102;44.506;0.220;2023-06-10T08:25:43;3.90;;;2.47;;
76689;SDS011;70102;44.506;0.220;2023-06-10T08:31:17;2.77;;;2.53;;
76689;SDS011;70102;44.506;0.220;2023-06-10T08:36:51;4.50;;;3.83;;
76689;SDS011;70102;44.506;0.220;2023-06-10T08:42:27;4.03;;;3.10;;
76689;SDS011;70102;44.506;0.220;2023-06-10T08:47:56;5.07;;;3.30;;
76689;SDS011;70102;44.506;0.220;2023-06-10T08:53:29;4.00;;;2.80;;
76689;SDS011;70102;44.506;0.220;2023-06-10T08:59:02;2.83;;;2.40;;
76689;SDS011;70102;44.506;0.220;2023-06-10T09:04:36;2.57;;;1.97;;
76689;SDS011;70102;44.506;0.220;2023-06-10T09:10:10;3.00;;;2.80;;
76689;SDS011;70102;44.506;0.220;2023-06-10T09:15:45;3.43;;;2.30;;
76689;SDS011;70102;44.506;0.220;2023-06-10T09:21:17;5.63;;;2.90;;
76689;SDS011;70102;44.506;0.220;2023-06-10T09:26:50;3.53;;;2.17;;
76689;SDS011;70102;44.506;0.220;2023-06-10T09:32:23;2.87;;;2.40;;
76689;SDS011;70102;44.506;0.220;2023-06-10T09:37:56;3.53;;;2.13;;
76689;SDS011;70102;44.506;0.220;2023-06-10T09:49:01;1.67;;;1.57;;
76689;SDS011;70102;44.506;0.220;2023-06-10T09:54:34;2.30;;;1.77;;
76689;SDS011;70102;44.506;0.220;2023-06-10T10:00:10;2.10;;;1.90;;
76689;SDS011;70102;44.506;0.220;2023-06-10T10:05:39;4.63;;;1.87;;
76689;SDS011;70102;44.506;0.220;2023-06-10T10:11:12;3.80;;;2.10;;
76689;SDS011;70102;44.506;0.220;2023-06-10T10:16:45;2.70;;;2.10;;
76689;SDS011;70102;44.506;0.220;2023-06-10T10:22:20;2.93;;;1.70;;
76689;SDS011;70102;44.506;0.220;2023-06-10T10:27:52;3.73;;;2.30;;
76689;SDS011;70102;44.506;0.220;2023-06-10T10:33:26;11.73;;;1.97;;
76689;SDS011;70102;44.506;0.220;2023-06-10T10:38:56;2.80;;;1.70;;
76689;SDS011;70102;44.506;0.220;2023-06-10T10:44:28;3.33;;;2.27;;
76689;SDS011;70102;44.506;0.220;2023-06-10T10:50:00;2.23;;;2.00;;
76689;SDS011;70102;44.506;0.220;2023-06-10T10:55:33;3.33;;;1.83;;
76689;SDS011;70102;44.506;0.220;2023-06-10T11:01:11;3.40;;;2.33;;
76689;SDS011;70102;44.506;0.220;2023-06-10T11:06:39;4.27;;;2.00;;
76689;SDS011;70102;44.506;0.220;2023-06-10T11:12:12;2.63;;;2.17;;
76689;SDS011;70102;44.506;0.220;2023-06-10T11:23:25;5.27;;;2.07;;
76689;SDS011;70102;44.506;0.220;2023-06-10T11:34:25;2.33;;;2.03;;
76689;SDS011;70102;44.506;0.220;2023-06-10T11:39:58;1.90;;;1.80;;
76689;SDS011;70102;44.506;0.220;2023-06-10T11:45:32;2.97;;;1.93;;
76689;SDS011;70102;44.506;0.220;2023-06-10T11:51:06;2.33;;;2.13;;
76689;SDS011;70102;44.506;0.220;2023-06-10T11:56:37;1.70;;;1.60;;
76689;SDS011;70102;44.506;0.220;2023-06-10T12:02:14;2.70;;;1.97;;
76689;SDS011;70102;44.506;0.220;2023-06-10T12:07:42;2.43;;;1.70;;
76689;SDS011;70102;44.506;0.220;2023-06-10T12:13:14;1.40;;;1.30;;
76689;SDS011;70102;44.506;0.220;2023-06-10T12:18:47;3.13;;;1.40;;
76689;SDS011;70102;44.506;0.220;2023-06-10T12:24:21;4.07;;;1.73;;
76689;SDS011;70102;44.506;0.220;2023-06-10T12:29:53;2.73;;;1.83;;
76689;SDS011;70102;44.506;0.220;2023-06-10T12:35:27;2.30;;;1.63;;
76689;SDS011;70102;44.506;0.220;2023-06-10T12:41:01;3.10;;;1.37;;
76689;SDS011;70102;44.506;0.220;2023-06-10T12:46:35;3.03;;;1.80;;
76689;SDS011;70102;44.506;0.220;2023-06-10T12:52:05;2.43;;;1.43;;
76689;SDS011;70102;44.506;0.220;2023-06-10T12:57:38;1.87;;;1.70;;
76689;SDS011;70102;44.506;0.220;2023-06-10T13:03:10;2.20;;;1.80;;
76689;SDS011;70102;44.506;0.220;2023-06-10T13:08:42;2.27;;;1.43;;
76689;SDS011;70102;44.506;0.220;2023-06-10T13:14:14;2.00;;;1.50;;
76689;SDS011;70102;44.506;0.220;2023-06-10T13:19:47;1.70;;;1.60;;
76689;SDS011;70102;44.506;0.220;2023-06-10T13:25:20;3.70;;;1.57;;
76689;SDS011;70102;44.506;0.220;2023-06-10T13:30:52;3.90;;;1.50;;
76689;SDS011;70102;44.506;0.220;2023-06-10T13:36:25;2.10;;;1.70;;
76689;SDS011;70102;44.506;0.220;2023-06-10T13:41:59;1.40;;;1.30;;
76689;SDS011;70102;44.506;0.220;2023-06-10T13:47:31;1.43;;;1.33;;
76689;SDS011;70102;44.506;0.220;2023-06-10T13:53:05;2.70;;;1.30;;
76689;SDS011;70102;44.506;0.220;2023-06-10T13:58:38;1.40;;;1.30;;
76689;SDS011;70102;44.506;0.220;2023-06-10T14:04:11;1.87;;;1.30;;
76689;SDS011;70102;44.506;0.220;2023-06-10T14:09:44;1.20;;;1.10;;
76689;SDS011;70102;44.506;0.220;2023-06-10T14:15:17;1.43;;;1.33;;
76689;SDS011;70102;44.506;0.220;2023-06-10T14:20:49;2.07;;;1.60;;
76689;SDS011;70102;44.506;0.220;2023-06-10T14:26:23;3.47;;;1.40;;
76689;SDS011;70102;44.506;0.220;2023-06-10T14:31:57;1.40;;;1.30;;
76689;SDS011;70102;44.506;0.220;2023-06-10T14:37:28;2.87;;;1.50;;
76689;SDS011;70102;44.506;0.220;2023-06-10T14:43:01;1.73;;;1.63;;
76689;SDS011;70102;44.506;0.220;2023-06-10T14:48:37;1.77;;;1.40;;
76689;SDS011;70102;44.506;0.220;2023-06-10T14:54:07;1.20;;;1.20;;
76689;SDS011;70102;44.506;0.220;2023-06-10T14:59:41;2.53;;;1.83;;
76689;SDS011;70102;44.506;0.220;2023-06-10T15:05:14;1.70;;;1.60;;
76689;SDS011;70102;44.506;0.220;2023-06-10T15:10:46;1.60;;;1.50;;
76689;SDS011;70102;44.506;0.220;2023-06-10T15:16:19;4.03;;;1.43;;
76689;SDS011;70102;44.506;0.220;2023-06-10T15:21:52;1.67;;;1.57;;
76689;SDS011;70102;44.506;0.220;2023-06-10T15:27:23;3.40;;;1.63;;
76689;SDS011;70102;44.506;0.220;2023-06-10T15:32:56;1.40;;;1.30;;
76689;SDS011;70102;44.506;0.220;2023-06-10T15:38:28;1.93;;;1.33;;
76689;SDS011;70102;44.506;0.220;2023-06-10T15:44:00;2.07;;;1.87;;
76689;SDS011;70102;44.506;0.220;2023-06-10T15:49:32;2.40;;;2.03;;
76689;SDS011;70102;44.506;0.220;2023-06-10T15:55:06;2.33;;;2.13;;
76689;SDS011;70102;44.506;0.220;2023-06-10T16:00:38;1.93;;;1.83;;
76689;SDS011;70102;44.506;0.220;2023-06-10T16:06:11;3.90;;;2.10;;
76689;SDS011;70102;44.506;0.220;2023-06-10T16:11:43;2.10;;;1.60;;
76689;SDS011;70102;44.506;0.220;2023-06-10T16:17:16;4.30;;;1.73;;
76689;SDS011;70102;44.506;0.220;2023-06-10T16:22:48;2.07;;;1.37;;
76689;SDS011;70102;44.506;0.220;2023-06-10T16:28:22;2.67;;;1.60;;
76689;SDS011;70102;44.506;0.220;2023-06-10T16:33:55;2.73;;;1.43;;
76689;SDS011;70102;44.506;0.220;2023-06-10T16:39:28;3.40;;;1.30;;
76689;SDS011;70102;44.506;0.220;2023-06-10T16:45:01;1.40;;;1.30;;
76689;SDS011;70102;44.506;0.220;2023-06-10T16:50:32;1.10;;;1.10;;
76689;SDS011;70102;44.506;0.220;2023-06-10T16:56:05;1.23;;;1.13;;
76689;SDS011;70102;44.506;0.220;2023-06-10T17:01:38;1.77;;;1.17;;
76689;SDS011;70102;44.506;0.220;2023-06-10T17:07:11;1.57;;;1.30;;
76689;SDS011;70102;44.506;0.220;2023-06-10T17:12:44;1.47;;;1.10;;
76689;SDS011;70102;44.506;0.220;2023-06-10T17:18:18;5.43;;;1.43;;
76689;SDS011;70102;44.506;0.220;2023-06-10T17:23:50;2.03;;;1.83;;
76689;SDS011;70102;44.506;0.220;2023-06-10T17:29:22;2.20;;;1.50;;
76689;SDS011;70102;44.506;0.220;2023-06-10T17:34:56;1.37;;;1.00;;
76689;SDS011;70102;44.506;0.220;2023-06-10T17:40:29;3.93;;;1.63;;
76689;SDS011;70102;44.506;0.220;2023-06-10T17:46:02;1.30;;;1.20;;
76689;SDS011;70102;44.506;0.220;2023-06-10T17:51:35;3.13;;;1.30;;
76689;SDS011;70102;44.506;0.220;2023-06-10T17:57:07;1.97;;;1.70;;
76689;SDS011;70102;44.506;0.220;2023-06-10T18:02:40;2.10;;;1.90;;
76689;SDS011;70102;44.506;0.220;2023-06-10T18:08:12;1.93;;;1.57;;
76689;SDS011;70102;44.506;0.220;2023-06-10T18:13:45;1.70;;;1.60;;
76689;SDS011;70102;44.506;0.220;2023-06-10T18:19:18;1.87;;;1.70;;
76689;SDS011;70102;44.506;0.220;2023-06-10T18:24:51;3.40;;;2.10;;
76689;SDS011;70102;44.506;0.220;2023-06-10T18:30:25;3.37;;;1.90;;
76689;SDS011;70102;44.506;0.220;2023-06-10T18:35:57;2.83;;;1.60;;
76689;SDS011;70102;44.506;0.220;2023-06-10T18:41:30;3.27;;;2.23;;
76689;SDS011;70102;44.506;0.220;2023-06-10T18:47:04;1.90;;;1.67;;
76689;SDS011;70102;44.506;0.220;2023-06-10T18:52:36;1.83;;;1.73;;
76689;SDS011;70102;44.506;0.220;2023-06-10T18:58:08;3.10;;;2.30;;
76689;SDS011;70102;44.506;0.220;2023-06-10T19:03:41;5.67;;;3.07;;
76689;SDS011;70102;44.506;0.220;2023-06-10T19:09:14;2.50;;;2.10;;
76689;SDS011;70102;44.506;0.220;2023-06-10T19:14:47;2.13;;;1.80;;
76689;SDS011;70102;44.506;0.220;2023-06-10T19:20:20;1.40;;;1.30;;
76689;SDS011;70102;44.506;0.220;2023-06-10T19:25:52;1.77;;;1.30;;
76689;SDS011;70102;44.506;0.220;2023-06-10T19:31:24;3.83;;;1.50;;
76689;SDS011;70102;44.506;0.220;2023-06-10T19:36:57;3.67;;;1.63;;
76689;SDS011;70102;44.506;0.220;2023-06-10T19:42:29;2.97;;;1.67;;
76689;SDS011;70102;44.506;0.220;2023-06-10T19:48:01;3.57;;;1.60;;
76689;SDS011;70102;44.506;0.220;2023-06-10T19:53:33;1.77;;;1.63;;
76689;SDS011;70102;44.506;0.220;2023-06-10T19:59:08;6.63;;;3.20;;
76689;SDS011;70102;44.506;0.220;2023-06-10T20:04:39;2.33;;;2.00;;
76689;SDS011;70102;44.506;0.220;2023-06-10T20:10:12;2.03;;;1.50;;
76689;SDS011;70102;44.506;0.220;2023-06-10T20:15:44;2.00;;;1.60;;
76689;SDS011;70102;44.506;0.220;2023-06-10T20:21:17;4.07;;;1.90;;
76689;SDS011;70102;44.506;0.220;2023-06-10T20:26:51;3.80;;;1.67;;
76689;SDS011;70102;44.506;0.220;2023-06-10T20:32:24;3.17;;;2.00;;
76689;SDS011;70102;44.506;0.220;2023-06-10T20:37:56;1.83;;;1.53;;
76689;SDS011;70102;44.506;0.220;2023-06-10T20:43:28;1.30;;;1.10;;
76689;SDS011;70102;44.506;0.220;2023-06-10T20:49:00;1.20;;;1.07;;
76689;SDS011;70102;44.506;0.220;2023-06-10T20:54:33;1.20;;;1.10;;
76689;SDS011;70102;44.506;0.220;2023-06-10T21:00:06;3.57;;;1.10;;
76689;SDS011;70102;44.506;0.220;2023-06-10T21:05:40;2.23;;;1.13;;
76689;SDS011;70102;44.506;0.220;2023-06-10T21:11:11;1.10;;;1.10;;
76689;SDS011;70102;44.506;0.220;2023-06-10T21:16:44;2.37;;;1.00;;
76689;SDS011;70102;44.506;0.220;2023-06-10T21:22:17;1.50;;;1.10;;
76689;SDS011;70102;44.506;0.220;2023-06-10T21:27:51;1.63;;;1.10;;
76689;SDS011;70102;44.506;0.220;2023-06-10T21:33:24;5.47;;;3.40;;
76689;SDS011;70102;44.506;0.220;2023-06-10T21:38:58;8.77;;;4.00;;
76689;SDS011;70102;44.506;0.220;2023-06-10T21:44:30;2.70;;;2.20;;
76689;SDS011;70102;44.506;0.220;2023-06-10T21:50:03;1.93;;;1.70;;
76689;SDS011;70102;44.506;0.220;2023-06-10T21:55:35;3.80;;;1.40;;
76689;SDS011;70102;44.506;0.220;2023-06-10T22:01:08;1.40;;;1.30;;
76689;SDS011;70102;44.506;0.220;2023-06-10T22:06:41;5.40;;;2.63;;
76689;SDS011;70102;44.506;0.220;2023-06-10T22:12:14;3.90;;;1.60;;
76689;SDS011;70102;44.506;0.220;2023-06-10T22:17:47;2.60;;;2.27;;
76689;SDS011;70102;44.506;0.220;2023-06-10T22:23:19;5.13;;;1.70;;
76689;SDS011;70102;44.506;0.220;2023-06-10T22:28:52;3.60;;;1.50;;
76689;SDS011;70102;44.506;0.220;2023-06-10T22:34:26;1.33;;;1.10;;
76689;SDS011;70102;44.506;0.220;2023-06-10T22:39:58;3.23;;;1.20;;
76689;SDS011;70102;44.506;0.220;2023-06-10T22:45:31;1.47;;;1.37;;
76689;SDS011;70102;44.506;0.220;2023-06-10T22:51:04;1.73;;;1.43;;
76689;SDS011;70102;44.506;0.220;2023-06-10T22:56:37;2.20;;;0.90;;
76689;SDS011;70102;44.506;0.220;2023-06-10T23:02:10;0.90;;;0.90;;
76689;SDS011;70102;44.506;0.220;2023-06-10T23:07:43;1.53;;;1.00;;
76689;SDS011;70102;44.506;0.220;2023-06-10T23:13:15;1.90;;;1.10;;
76689;SDS011;70102;44.506;0.220;2023-06-10T23:18:48;1.43;;;0.90;;
76689;SDS011;70102;44.506;0.220;2023-06-10T23:24:21;0.90;;;0.90;;
76689;SDS011;70102;44.506;0.220;2023-06-10T23:29:53;0.90;;;0.90;;
76689;SDS011;70102;44.506;0.220;2023-06-10T23:35:26;3.47;;;2.30;;
76689;SDS011;70102;44.506;0.220;2023-06-10T23:40:59;1.07;;;0.93;;
76689;SDS011;70102;44.506;0.220;2023-06-10T23:46:33;1.10;;;0.90;;
76689;SDS011;70102;44.506;0.220;2023-06-10T23:52:04;1.80;;;1.03;;
76689;SDS011;70102;44.506;0.220;2023-06-10T23:57:37;9.27;;;1.20;;
